createdAt,value
2023-03-25T00:01:43.503Z,86.52
2023-03-25T00:04:11.040Z,86.96
2023-03-25T00:06:39.205Z,87.13
2023-03-25T00:09:08.259Z,87.25
2023-03-25T00:11:36.975Z,87.35
2023-03-25T00:14:04.655Z,87.62
2023-03-25T00:16:32.286Z,87.36
2023-03-25T00:19:02.020Z,87.51
2023-03-25T00:21:29.496Z,87.36
2023-03-25T00:23:57.056Z,87.26
2023-03-25T00:26:29.996Z,87.21
2023-03-25T00:28:57.509Z,87.36
2023-03-25T00:31:25.068Z,87.14
2023-03-25T00:33:52.674Z,87.42
2023-03-25T00:36:20.237Z,87.19
2023-03-25T00:38:49.932Z,87.09
2023-03-25T00:41:22.639Z,87.40
2023-03-25T00:43:53.273Z,87.79
2023-03-25T00:46:22.801Z,87.02
2023-03-25T00:48:52.565Z,86.99
2023-03-25T00:51:21.650Z,86.75
2023-03-25T00:53:52.272Z,86.42
2023-03-25T00:56:19.855Z,86.63
2023-03-25T00:58:47.384Z,86.14
2023-03-25T01:01:18.871Z,84.03
2023-03-25T01:03:46.628Z,83.73
2023-03-25T01:06:16.783Z,83.54
2023-03-25T01:08:45.146Z,82.86
2023-03-25T01:11:19.734Z,83.25
2023-03-25T01:13:51.234Z,83.00
2023-03-25T01:16:20.370Z,83.17
2023-03-25T01:18:47.973Z,83.03
2023-03-25T01:21:15.854Z,83.16
2023-03-25T01:23:43.426Z,83.09
2023-03-25T01:26:12.978Z,83.20
2023-03-25T01:28:41.235Z,83.07
2023-03-25T01:31:10.743Z,83.40
2023-03-25T01:33:40.557Z,83.50
2023-03-25T01:36:10.294Z,83.52
2023-03-25T01:38:37.980Z,83.62
2023-03-25T01:41:06.646Z,83.53
2023-03-25T01:43:34.772Z,83.45
2023-03-25T01:46:02.387Z,83.04
2023-03-25T01:48:35.728Z,83.04
2023-03-25T01:51:08.029Z,82.78
2023-03-25T01:53:35.656Z,82.77
2023-03-25T01:56:05.465Z,82.79
2023-03-25T01:58:34.993Z,82.91
2023-03-25T02:01:03.322Z,83.21
2023-03-25T02:03:36.966Z,83.19
2023-03-25T02:06:10.244Z,82.79
2023-03-25T02:08:41.522Z,82.99
2023-03-25T02:11:10.491Z,82.97
2023-03-25T02:13:40.053Z,83.37
2023-03-25T02:16:19.234Z,82.87
2023-03-25T02:18:53.575Z,82.86
2023-03-25T02:22:01.659Z,83.30
2023-03-25T02:24:57.898Z,83.03
2023-03-25T02:27:33.739Z,83.00
2023-03-25T02:30:33.887Z,82.96
2023-03-25T02:33:35.522Z,83.19
2023-03-25T02:36:22.389Z,82.74
2023-03-25T02:38:52.594Z,83.02
2023-03-25T02:41:25.672Z,83.52
2023-03-25T02:44:00.729Z,83.54
2023-03-25T02:46:29.293Z,83.33
2023-03-25T02:48:59.684Z,82.96
2023-03-25T02:51:30.979Z,82.96
2023-03-25T02:54:04.018Z,82.54
2023-03-25T02:56:33.014Z,82.26
2023-03-25T02:59:01.910Z,82.03
2023-03-25T03:01:29.443Z,81.73
2023-03-25T03:03:57.711Z,81.54
2023-03-25T03:06:26.086Z,80.87
2023-03-25T03:09:09.021Z,80.88
2023-03-25T03:11:42.870Z,80.39
2023-03-25T03:14:26.465Z,79.51
2023-03-25T03:17:00.766Z,79.81
2023-03-25T03:19:38.254Z,80.50
2023-03-25T03:22:15.187Z,81.37
2023-03-25T03:24:47.295Z,81.53
2023-03-25T03:27:23.783Z,81.92
2023-03-25T03:29:53.798Z,82.34
2023-03-25T03:32:24.541Z,82.81
2023-03-25T03:34:54.152Z,83.22
2023-03-25T03:37:24.564Z,83.21
2023-03-25T03:39:55.486Z,84.44
2023-03-25T03:42:28.719Z,85.07
2023-03-25T03:44:59.766Z,85.69
2023-03-25T03:47:30.496Z,86.21
2023-03-25T03:50:00.634Z,87.39
2023-03-25T03:52:31.698Z,88.37
2023-03-25T03:55:01.889Z,89.77
2023-03-25T03:57:32.453Z,88.92
2023-03-25T04:00:06.909Z,89.34
2023-03-25T04:02:42.948Z,87.27
2023-03-25T04:05:12.655Z,81.57
2023-03-25T04:07:41.615Z,83.86
2023-03-25T04:10:15.013Z,81.15
2023-03-25T04:12:44.995Z,81.29
2023-03-25T04:15:13.346Z,80.65
2023-03-25T04:17:40.911Z,81.15
2023-03-25T04:20:11.595Z,80.81
2023-03-25T04:22:39.165Z,82.05
2023-03-25T04:25:07.343Z,80.57
2023-03-25T04:27:37.642Z,81.13
2023-03-25T04:30:06.535Z,81.37
2023-03-25T04:32:34.885Z,81.47
2023-03-25T04:35:02.470Z,81.59
2023-03-25T04:37:30.119Z,81.24
2023-03-25T04:40:00.231Z,82.20
2023-03-25T04:42:33.086Z,81.94
2023-03-25T04:45:02.520Z,81.86
2023-03-25T04:47:30.153Z,82.02
2023-03-25T04:49:57.687Z,82.30
2023-03-25T04:52:25.214Z,81.98
2023-03-25T04:54:52.665Z,82.34
2023-03-25T04:57:20.261Z,82.38
2023-03-25T04:59:47.818Z,82.29
2023-03-25T05:02:18.357Z,81.67
2023-03-25T05:04:47.425Z,81.58
2023-03-25T05:07:16.578Z,82.09
2023-03-25T05:09:44.308Z,81.83
2023-03-25T05:12:11.830Z,82.31
2023-03-25T05:14:39.405Z,81.72
2023-03-25T05:17:06.923Z,82.07
2023-03-25T05:19:35.828Z,82.06
2023-03-25T05:22:04.681Z,82.35
2023-03-25T05:24:32.394Z,82.84
2023-03-25T05:27:02.359Z,83.34
2023-03-25T05:29:34.162Z,83.78
2023-03-25T05:32:01.791Z,84.52
2023-03-25T05:34:31.081Z,85.15
2023-03-25T05:36:59.928Z,85.54
2023-03-25T05:39:27.451Z,86.42
2023-03-25T05:41:55.779Z,86.66
2023-03-25T05:44:23.355Z,86.55
2023-03-25T05:46:51.255Z,86.73
2023-03-25T05:49:18.819Z,87.18
2023-03-25T05:51:49.777Z,88.28
2023-03-25T05:54:18.755Z,88.89
2023-03-25T05:56:46.743Z,89.39
2023-03-25T05:59:14.452Z,89.59
2023-03-25T06:01:45.714Z,89.80
2023-03-25T06:04:13.751Z,90.42
2023-03-25T06:06:41.372Z,90.79
2023-03-25T06:09:09.589Z,91.68
2023-03-25T06:11:39.015Z,92.77
2023-03-25T06:14:07.091Z,93.20
2023-03-25T06:16:35.468Z,91.85
2023-03-25T06:19:03.191Z,92.89
2023-03-25T06:21:35.473Z,92.63
2023-03-25T06:24:03.323Z,91.49
2023-03-25T06:26:32.511Z,90.08
2023-03-25T06:29:03.877Z,90.27
2023-03-25T06:31:33.624Z,88.26
2023-03-25T06:34:02.322Z,87.78
2023-03-25T06:36:29.949Z,87.97
2023-03-25T06:38:58.345Z,88.36
2023-03-25T06:41:26.106Z,87.38
2023-03-25T06:44:06.457Z,88.27
2023-03-25T06:46:52.592Z,88.10
2023-03-25T06:49:29.550Z,88.71
2023-03-25T06:51:58.364Z,88.57
2023-03-25T06:54:26.019Z,89.06
2023-03-25T06:56:53.535Z,89.54
2023-03-25T06:59:22.405Z,89.53
2023-03-25T07:01:50.008Z,88.52
2023-03-25T07:04:19.649Z,87.90
2023-03-25T07:06:47.400Z,87.32
2023-03-25T07:09:15.488Z,87.38
2023-03-25T07:12:12.785Z,85.98
2023-03-25T07:14:41.610Z,85.85
2023-03-25T07:17:09.420Z,85.65
2023-03-25T07:19:36.919Z,85.82
2023-03-25T07:22:04.441Z,85.98
2023-03-25T07:24:42.527Z,84.22
2023-03-25T07:27:13.992Z,84.42
2023-03-25T07:29:46.568Z,84.90
2023-03-25T07:32:14.539Z,84.75
2023-03-25T07:34:42.111Z,83.46
2023-03-25T07:37:09.699Z,83.74
2023-03-25T07:39:37.279Z,82.70
2023-03-25T07:42:06.532Z,82.92
2023-03-25T07:44:55.377Z,81.66
2023-03-25T07:47:23.803Z,81.35
2023-03-25T07:49:51.309Z,81.28
2023-03-25T07:52:18.779Z,81.11
2023-03-25T07:54:46.290Z,81.31
2023-03-25T07:57:14.058Z,81.03
2023-03-25T07:59:41.663Z,80.83
2023-03-25T08:02:13.569Z,80.34
2023-03-25T08:04:41.149Z,80.26
2023-03-25T08:07:09.131Z,80.30
2023-03-25T08:09:36.669Z,80.16
2023-03-25T08:12:04.534Z,79.97
2023-03-25T08:14:32.128Z,80.03
2023-03-25T08:16:59.695Z,79.69
2023-03-25T08:19:28.944Z,79.79
2023-03-25T08:21:56.915Z,79.33
2023-03-25T08:24:26.871Z,79.16
2023-03-25T08:26:54.875Z,79.39
2023-03-25T08:29:22.490Z,80.05
2023-03-25T08:31:52.409Z,79.26
2023-03-25T08:34:21.030Z,78.09
2023-03-25T08:36:49.852Z,78.37
2023-03-25T08:39:18.408Z,78.19
2023-03-25T08:41:46.287Z,78.14
2023-03-25T08:44:13.825Z,77.50
2023-03-25T08:46:41.408Z,76.37
2023-03-25T08:49:08.968Z,75.43
2023-03-25T08:51:36.576Z,76.52
2023-03-25T08:54:05.676Z,76.51
2023-03-25T08:56:33.295Z,75.84
2023-03-25T08:59:01.312Z,76.44
2023-03-25T09:01:29.304Z,76.24
2023-03-25T09:03:57.810Z,77.43
2023-03-25T09:06:26.061Z,76.98
2023-03-25T09:08:55.857Z,75.80
2023-03-25T09:11:36.122Z,76.44
2023-03-25T09:14:05.066Z,75.52
2023-03-25T09:16:32.759Z,74.78
2023-03-25T09:19:00.272Z,75.30
2023-03-25T09:21:27.772Z,75.48
2023-03-25T09:23:55.615Z,75.93
2023-03-25T09:26:23.125Z,78.33
2023-03-25T09:28:51.945Z,81.11
2023-03-25T09:31:19.565Z,81.40
2023-03-25T09:33:47.119Z,80.70
2023-03-25T09:36:14.644Z,80.79
2023-03-25T09:38:42.119Z,79.73
2023-03-25T09:41:29.279Z,74.57
2023-03-25T09:44:03.574Z,75.35
2023-03-25T09:46:31.321Z,73.01
2023-03-25T09:48:59.677Z,74.06
2023-03-25T09:51:29.683Z,73.63
2023-03-25T09:54:00.648Z,73.30
2023-03-25T09:56:29.932Z,72.25
2023-03-25T09:59:01.330Z,72.95
2023-03-25T10:01:37.715Z,72.68
2023-03-25T10:04:25.780Z,70.91
2023-03-25T10:06:57.717Z,71.21
2023-03-25T10:09:34.227Z,70.04
2023-03-25T10:12:06.883Z,69.10
2023-03-25T10:14:39.265Z,69.78
2023-03-25T10:17:16.521Z,68.82
2023-03-25T10:19:51.328Z,69.17
2023-03-25T10:22:22.348Z,67.70
2023-03-25T10:24:52.984Z,66.19
2023-03-25T10:27:24.275Z,66.94
2023-03-25T10:29:55.371Z,66.04
2023-03-25T10:32:32.994Z,66.14
2023-03-25T10:35:02.165Z,66.87
2023-03-25T10:37:32.722Z,66.43
2023-03-25T10:40:12.761Z,65.30
2023-03-25T10:42:45.256Z,66.11
2023-03-25T10:45:14.793Z,66.33
2023-03-25T10:47:45.162Z,65.60
2023-03-25T10:50:16.330Z,66.08
2023-03-25T10:52:44.619Z,66.51
2023-03-25T10:55:23.774Z,66.34
2023-03-25T10:57:51.908Z,65.89
2023-03-25T11:00:24.550Z,66.04
2023-03-25T11:02:52.495Z,66.00
2023-03-25T11:05:22.245Z,66.06
2023-03-25T11:07:53.016Z,70.18
2023-03-25T11:10:22.644Z,71.39
2023-03-25T11:12:51.590Z,72.14
2023-03-25T11:15:23.553Z,73.55
2023-03-25T11:17:58.329Z,74.85
2023-03-25T11:20:28.762Z,73.05
2023-03-25T11:23:04.973Z,71.82
2023-03-25T11:25:34.835Z,70.83
2023-03-25T11:28:03.958Z,70.98
2023-03-25T11:30:32.775Z,71.08
2023-03-25T11:33:04.159Z,71.73
2023-03-25T11:35:34.380Z,70.65
2023-03-25T11:38:03.597Z,70.29
2023-03-25T11:40:32.949Z,69.53
2023-03-25T11:43:01.693Z,69.26
2023-03-25T11:45:35.892Z,69.57
2023-03-25T11:48:11.538Z,68.63
2023-03-25T11:50:39.187Z,68.66
2023-03-25T11:53:07.186Z,67.66
2023-03-25T11:55:45.208Z,68.34
2023-03-25T11:58:16.464Z,67.38
2023-03-25T12:00:47.977Z,66.95
2023-03-25T12:03:21.010Z,66.22
2023-03-25T12:05:59.112Z,66.39
2023-03-25T12:08:30.238Z,65.75
2023-03-25T12:11:01.892Z,64.82
2023-03-25T12:13:36.577Z,64.81
2023-03-25T12:16:18.561Z,64.19
2023-03-25T12:19:00.894Z,63.07
2023-03-25T12:21:37.746Z,63.30
2023-03-25T12:24:14.087Z,63.56
2023-03-25T12:26:45.502Z,63.54
2023-03-25T12:29:23.567Z,62.96
2023-03-25T12:32:01.989Z,62.19
2023-03-25T12:34:39.634Z,68.43
2023-03-25T12:37:17.631Z,76.77
2023-03-25T12:39:57.283Z,81.42
2023-03-25T12:42:36.173Z,82.02
2023-03-25T12:45:16.182Z,77.95
2023-03-25T12:47:47.964Z,76.46
2023-03-25T12:50:34.970Z,74.08
2023-03-25T12:53:13.350Z,74.28
2023-03-25T12:55:52.127Z,76.08
2023-03-25T12:58:31.272Z,77.61
2023-03-25T13:01:01.992Z,84.00
2023-03-25T13:04:00.709Z,90.28
2023-03-25T13:06:31.236Z,92.39
2023-03-25T13:09:02.065Z,88.74
2023-03-25T13:11:33.332Z,87.06
2023-03-25T13:14:05.531Z,82.51
2023-03-25T13:16:34.048Z,84.84
2023-03-25T13:19:04.916Z,83.63
2023-03-25T13:21:34.506Z,82.67
2023-03-25T13:24:04.883Z,81.44
2023-03-25T13:26:33.519Z,81.51
2023-03-25T13:29:02.316Z,79.75
2023-03-25T13:31:35.470Z,80.06
2023-03-25T13:34:15.510Z,78.35
2023-03-25T13:36:44.727Z,79.21
2023-03-25T13:39:15.446Z,76.74
2023-03-25T13:41:44.976Z,77.63
2023-03-25T13:44:16.491Z,76.16
2023-03-25T13:46:50.033Z,75.41
2023-03-25T13:49:24.246Z,75.08
2023-03-25T13:51:51.721Z,74.72
2023-03-25T13:54:23.060Z,74.46
2023-03-25T13:57:26.400Z,73.91
2023-03-25T14:00:15.468Z,74.15
2023-03-25T14:02:53.922Z,74.66
2023-03-25T14:05:56.290Z,73.76
2023-03-25T14:08:47.755Z,73.30
2023-03-25T14:11:21.581Z,74.41
2023-03-25T14:13:53.191Z,73.89
2023-03-25T14:16:22.641Z,74.34
2023-03-25T14:18:51.591Z,72.85
2023-03-25T14:21:31.365Z,72.96
2023-03-25T14:24:08.039Z,73.64
2023-03-25T14:26:37.644Z,72.72
2023-03-25T14:29:09.866Z,73.10
2023-03-25T14:31:37.548Z,73.29
2023-03-25T14:34:29.355Z,74.22
2023-03-25T14:37:18.931Z,73.60
2023-03-25T14:39:46.472Z,73.55
2023-03-25T14:42:42.215Z,71.55
2023-03-25T14:45:43.262Z,71.91
2023-03-25T14:48:31.197Z,71.49
2023-03-25T14:51:22.366Z,70.64
2023-03-25T14:53:54.768Z,70.84
2023-03-25T14:56:25.428Z,70.89
2023-03-25T14:58:55.169Z,69.95
2023-03-25T15:01:29.380Z,70.21
2023-03-25T15:04:09.490Z,70.49
2023-03-25T15:06:37.227Z,70.15
2023-03-25T15:09:09.820Z,69.65
2023-03-25T15:11:37.871Z,69.31
2023-03-25T15:14:07.778Z,69.12
2023-03-25T15:16:37.320Z,69.57
2023-03-25T15:19:11.438Z,69.83
2023-03-25T15:22:10.948Z,69.59
2023-03-25T15:24:39.945Z,69.92
2023-03-25T15:27:12.188Z,69.35
2023-03-25T15:29:46.663Z,69.06
2023-03-25T15:32:30.991Z,68.19
2023-03-25T15:35:14.581Z,68.16
2023-03-25T15:37:54.913Z,67.69
2023-03-25T15:40:32.031Z,67.73
2023-03-25T15:43:44.692Z,67.81
2023-03-25T15:47:00.079Z,67.96
2023-03-25T15:49:37.247Z,68.19
2023-03-25T15:52:16.357Z,68.45
2023-03-25T15:54:45.545Z,69.04
2023-03-25T15:57:23.185Z,69.21
2023-03-25T15:59:56.844Z,69.16
2023-03-25T16:02:29.496Z,69.47
2023-03-25T16:04:57.529Z,70.08
2023-03-25T16:07:28.699Z,69.19
2023-03-25T16:09:56.393Z,69.18
2023-03-25T16:12:26.242Z,68.74
2023-03-25T16:14:53.833Z,68.87
2023-03-25T16:17:22.644Z,68.99
2023-03-25T16:19:52.720Z,68.72
2023-03-25T16:22:23.106Z,69.19
2023-03-25T16:24:51.906Z,69.38
2023-03-25T16:27:26.668Z,70.30
2023-03-25T16:29:55.470Z,70.37
2023-03-25T16:32:24.490Z,71.00
2023-03-25T16:34:53.844Z,71.57
2023-03-25T16:37:22.589Z,72.39
2023-03-25T16:39:53.315Z,72.87
2023-03-25T16:42:27.336Z,73.57
2023-03-25T16:44:55.136Z,73.88
2023-03-25T16:47:23.297Z,74.67
2023-03-25T16:49:53.451Z,75.24
2023-03-25T16:52:26.155Z,76.03
2023-03-25T16:55:33.239Z,77.68
2023-03-25T16:58:03.406Z,78.07
2023-03-25T17:00:43.242Z,77.91
2023-03-25T17:03:17.790Z,77.57
2023-03-25T17:05:54.844Z,78.54
2023-03-25T17:08:22.692Z,80.07
2023-03-25T17:10:52.111Z,80.95
2023-03-25T17:13:26.344Z,82.29
2023-03-25T17:15:53.991Z,83.49
2023-03-25T17:18:24.647Z,81.40
2023-03-25T17:20:57.814Z,80.96
2023-03-25T17:23:35.403Z,81.15
2023-03-25T17:26:06.938Z,81.52
2023-03-25T17:28:38.991Z,81.60
2023-03-25T17:31:25.544Z,82.56
2023-03-25T17:33:54.391Z,82.09
2023-03-25T17:36:22.261Z,81.83
2023-03-25T17:38:53.376Z,82.20
2023-03-25T17:41:21.659Z,82.75
2023-03-25T17:43:52.296Z,82.72
2023-03-25T17:46:21.612Z,82.73
2023-03-25T17:48:50.708Z,82.56
2023-03-25T17:51:19.445Z,82.49
2023-03-25T17:53:46.952Z,82.39
2023-03-25T17:56:16.321Z,83.76
2023-03-25T17:58:44.174Z,82.94
2023-03-25T18:01:13.918Z,83.11
2023-03-25T18:03:41.709Z,82.71
2023-03-25T18:06:09.933Z,83.47
2023-03-25T18:08:37.670Z,82.90
2023-03-25T18:11:06.707Z,82.73
2023-03-25T18:13:34.252Z,81.38
2023-03-25T18:16:02.006Z,80.75
2023-03-25T18:18:31.119Z,80.92
2023-03-25T18:20:59.865Z,80.89
2023-03-25T18:23:28.338Z,79.80
2023-03-25T18:26:02.975Z,80.42
2023-03-25T18:28:31.033Z,79.32
2023-03-25T18:31:00.270Z,78.86
2023-03-25T18:33:28.622Z,76.76
2023-03-25T18:35:59.810Z,76.60
2023-03-25T18:38:28.449Z,76.23
2023-03-25T18:40:56.907Z,76.04
2023-03-25T18:43:24.470Z,75.69
2023-03-25T18:45:52.013Z,76.37
2023-03-25T18:48:21.617Z,75.36
2023-03-25T18:50:52.589Z,75.43
2023-03-25T18:53:21.886Z,76.10
2023-03-25T18:55:50.390Z,76.12
2023-03-25T18:58:19.004Z,76.40
2023-03-25T19:00:48.315Z,76.21
2023-03-25T19:03:16.334Z,76.41
2023-03-25T19:05:44.590Z,76.87
2023-03-25T19:08:16.614Z,76.81
2023-03-25T19:10:46.449Z,77.34
2023-03-25T19:13:14.791Z,76.73
2023-03-25T19:15:43.265Z,77.15
2023-03-25T19:18:14.915Z,77.05
2023-03-25T19:20:44.466Z,76.79
2023-03-25T19:23:12.642Z,76.88
2023-03-25T19:25:41.458Z,76.59
2023-03-25T19:28:10.392Z,76.71
2023-03-25T19:30:38.041Z,76.38
2023-03-25T19:33:06.169Z,75.88
2023-03-25T19:35:33.827Z,76.00
2023-03-25T19:38:03.309Z,76.58
2023-03-25T19:40:32.684Z,76.79
2023-03-25T19:43:02.461Z,76.83
2023-03-25T19:45:32.095Z,76.46
2023-03-25T19:47:59.639Z,76.68
2023-03-25T19:50:29.245Z,76.87
2023-03-25T19:52:57.291Z,76.02
2023-03-25T19:55:24.965Z,75.91
2023-03-25T19:57:53.180Z,74.77
2023-03-25T20:00:22.984Z,73.14
2023-03-25T20:02:53.825Z,72.41
2023-03-25T20:05:22.802Z,72.77
2023-03-25T20:07:51.531Z,72.71
2023-03-25T20:10:21.718Z,72.80
2023-03-25T20:12:49.529Z,72.67
2023-03-25T20:15:17.781Z,72.13
2023-03-25T20:17:45.515Z,71.19
2023-03-25T20:20:14.813Z,72.17
2023-03-25T20:22:44.708Z,71.87
2023-03-25T20:25:13.743Z,71.63
2023-03-25T20:27:42.493Z,71.37
2023-03-25T20:30:11.807Z,71.48
2023-03-25T20:32:42.153Z,71.84
2023-03-25T20:35:12.896Z,71.71
2023-03-25T20:37:42.072Z,72.16
2023-03-25T20:40:12.033Z,71.78
2023-03-25T20:42:40.009Z,71.92
2023-03-25T20:45:08.907Z,72.47
2023-03-25T20:47:36.767Z,71.47
2023-03-25T20:50:05.045Z,71.37
2023-03-25T20:52:32.548Z,71.48
2023-03-25T20:55:01.409Z,71.23
2023-03-25T20:57:28.999Z,72.01
2023-03-25T20:59:56.808Z,72.07
2023-03-25T21:02:24.967Z,73.08
2023-03-25T21:04:55.192Z,72.23
2023-03-25T21:07:24.294Z,72.68
2023-03-25T21:09:51.848Z,72.19
2023-03-25T21:12:23.167Z,71.76
2023-03-25T21:14:54.850Z,71.15
2023-03-25T21:17:22.521Z,71.44
2023-03-25T21:19:50.225Z,71.08
2023-03-25T21:22:17.778Z,71.00
2023-03-25T21:24:45.375Z,70.52
2023-03-25T21:27:14.013Z,70.40
2023-03-25T21:29:42.849Z,71.15
2023-03-25T21:32:10.988Z,71.22
2023-03-25T21:34:40.544Z,70.67
2023-03-25T21:37:08.013Z,71.52
2023-03-25T21:39:35.838Z,70.95
2023-03-25T21:42:10.112Z,71.05
2023-03-25T21:44:40.683Z,71.27
2023-03-25T21:47:09.764Z,70.23
2023-03-25T21:49:38.224Z,70.49
2023-03-25T21:52:06.497Z,70.51
2023-03-25T21:54:34.144Z,70.47
2023-03-25T21:57:04.427Z,70.69
2023-03-25T21:59:32.137Z,70.98
2023-03-25T22:01:59.628Z,70.96
2023-03-25T22:04:28.568Z,71.35
2023-03-25T22:06:56.680Z,71.25
2023-03-25T22:09:24.213Z,71.51
2023-03-25T22:11:51.744Z,71.86
2023-03-25T22:14:19.285Z,72.07
2023-03-25T22:16:46.912Z,71.78
2023-03-25T22:19:14.617Z,72.43
2023-03-25T22:21:43.864Z,72.60
2023-03-25T22:24:11.488Z,72.79
2023-03-25T22:26:40.121Z,73.12
2023-03-25T22:29:08.941Z,73.35
2023-03-25T22:31:39.632Z,73.70
2023-03-25T22:34:11.685Z,74.77
2023-03-25T22:36:40.736Z,75.74
2023-03-25T22:39:10.349Z,76.55
2023-03-25T22:41:38.004Z,77.21
2023-03-25T22:44:05.861Z,77.58
2023-03-25T22:46:33.868Z,77.83
2023-03-25T22:49:04.514Z,77.84
2023-03-25T22:51:32.236Z,78.33
2023-03-25T22:54:00.275Z,78.40
2023-03-25T22:56:33.878Z,78.94
2023-03-25T22:59:02.069Z,79.25
2023-03-25T23:01:29.802Z,78.39
2023-03-25T23:03:58.247Z,78.83
2023-03-25T23:06:26.568Z,78.75
2023-03-25T23:08:55.949Z,78.58
2023-03-25T23:11:26.034Z,78.70
2023-03-25T23:13:56.711Z,78.23
2023-03-25T23:16:25.844Z,78.72
2023-03-25T23:18:53.797Z,78.41
2023-03-25T23:21:23.027Z,78.48
2023-03-25T23:23:53.164Z,78.48
2023-03-25T23:26:24.524Z,78.91
2023-03-25T23:28:52.530Z,78.44
2023-03-25T23:31:28.478Z,78.54
2023-03-25T23:33:57.581Z,78.40
2023-03-25T23:36:26.012Z,78.70
2023-03-25T23:38:53.688Z,78.90
2023-03-25T23:41:23.230Z,79.10
2023-03-25T23:43:51.327Z,79.16
2023-03-25T23:46:21.841Z,79.29
2023-03-25T23:48:54.508Z,79.38
2023-03-25T23:51:24.087Z,79.28
2023-03-25T23:53:52.640Z,79.72
2023-03-25T23:56:21.690Z,79.76
2023-03-25T23:58:49.340Z,79.86
